Time;durP1;ratioP1;P1;durP2;ratioP2;P2;SDS_P1;SDS_P2;PMS_P1;PMS_P2;Temp;Humidity;BMP_temperature;BMP_pressure;BME280_temperature;BME280_humidity;BME280_pressure;Samples;Min_cycle;Max_cycle;Signal;HPM_P1;HPM_P2
2022/12/15 00:39:57;;;;;;;61.33;24.40;;;;;;;-5.25;100.00;98601.31;4181915;28;20824;-65
2022/12/15 00:42:27;;;;;;;61.13;24.03;;;;;;;-5.31;100.00;98612.91;4178437;28;20464;-63
2022/12/15 00:44:55;;;;;;;65.23;24.70;;;;;;;-5.30;100.00;98606.78;4189932;28;20247;-65
2022/12/15 00:47:21;;;;;;;60.00;23.90;;;;;;;-5.28;100.00;98604.13;4179110;28;20248;-65
2022/12/15 01:20:17;;;;;;;60.83;23.00;;;;;;;-5.23;100.00;98588.28;4205040;28;20316;-63
2022/12/15 01:22:54;;;;;;;61.83;23.80;;;;;;;-5.18;100.00;98597.44;4190779;28;21501;-65
2022/12/15 01:25:23;;;;;;;60.47;23.40;;;;;;;-5.14;100.00;98596.34;4201241;28;20285;-62
2022/12/15 01:27:50;;;;;;;58.97;23.50;;;;;;;-5.04;100.00;98593.19;4195278;28;20325;-62
2022/12/15 01:30:19;;;;;;;68.17;24.63;;;;;;;-5.11;100.00;98590.13;4191348;28;20236;-64
2022/12/15 01:32:46;;;;;;;55.80;23.23;;;;;;;-5.03;100.00;98587.06;4180205;28;20237;-64
2022/12/15 01:35:13;;;;;;;57.77;23.10;;;;;;;-5.07;100.00;98588.22;4183443;28;23795;-64
2022/12/15 01:37:39;;;;;;;60.90;22.50;;;;;;;-5.07;100.00;98590.81;4181852;28;20777;-64
2022/12/15 01:42:52;;;;;;;53.90;22.10;;;;;;;-4.93;100.00;98591.63;4180118;28;20408;-64
2022/12/15 01:45:40;;;;;;;62.60;24.20;;;;;;;-4.90;100.00;98600.97;4191159;28;21107;-63
2022/12/15 01:48:09;;;;;;;61.23;22.83;;;;;;;-4.94;100.00;98599.50;4173667;28;20225;-66
2022/12/15 01:50:41;;;;;;;64.30;23.00;;;;;;;-5.04;100.00;98598.38;4177155;28;20248;-65
2022/12/15 01:53:09;;;;;;;61.27;23.40;;;;;;;-4.96;100.00;98596.19;4184624;28;20289;-66
2022/12/15 01:55:37;;;;;;;53.17;22.00;;;;;;;-4.76;100.00;98587.16;4177001;28;21608;-64
2022/12/15 01:58:06;;;;;;;55.03;21.77;;;;;;;-4.74;100.00;98591.34;4182131;28;20240;-65
2022/12/15 02:00:33;;;;;;;60.80;22.77;;;;;;;-4.57;100.00;98586.84;4179794;28;20594;-65
2022/12/15 02:03:00;;;;;;;58.73;22.37;;;;;;;-4.59;100.00;98584.38;4182268;28;20225;-65
2022/12/15 02:05:29;;;;;;;56.23;22.47;;;;;;;-4.57;100.00;98589.47;4182350;28;21668;-65
2022/12/15 02:07:57;;;;;;;58.20;24.57;;;;;;;-4.69;100.00;98586.69;4173828;28;22548;-65
2022/12/15 02:10:28;;;;;;;57.20;22.27;;;;;;;-4.59;100.00;98586.13;4168336;28;20323;-65
2022/12/15 02:13:02;;;;;;;63.83;23.40;;;;;;;-4.72;100.00;98579.09;4174615;28;20300;-65
2022/12/15 02:15:46;;;;;;;62.53;23.03;;;;;;;-4.84;100.00;98585.06;4173071;28;20234;-65
2022/12/15 02:18:21;;;;;;;57.53;21.83;;;;;;;-4.87;100.00;98595.59;4178518;28;20237;-67
2022/12/15 02:21:28;;;;;;;55.33;23.30;;;;;;;-4.87;100.00;98598.19;4163154;28;20290;-65
2022/12/15 02:24:18;;;;;;;56.47;22.23;;;;;;;-4.87;100.00;98593.00;4184133;28;20314;-65
2022/12/15 02:27:25;;;;;;;55.53;22.83;;;;;;;-4.79;100.00;98597.75;4178109;28;20234;-65
2022/12/15 02:30:14;;;;;;;58.20;22.53;;;;;;;-4.85;100.00;98598.09;4189240;28;21724;-67
2022/12/15 02:33:00;;;;;;;61.63;22.70;;;;;;;-4.89;100.00;98589.69;4190103;28;20418;-67
2022/12/15 02:35:34;;;;;;;56.43;22.77;;;;;;;-4.75;100.00;98604.41;4174094;28;20292;-66
2022/12/15 02:38:01;;;;;;;61.93;23.27;;;;;;;-4.88;100.00;98596.53;4185752;28;20639;-64
2022/12/15 02:40:29;;;;;;;56.03;22.07;;;;;;;-4.94;100.00;98589.13;4176854;28;20229;-66
2022/12/15 02:42:57;;;;;;;68.37;22.73;;;;;;;-4.81;100.00;98600.41;4176595;28;20229;-64
2022/12/15 02:46:05;;;;;;;52.63;22.10;;;;;;;-4.76;100.00;98606.16;4181829;28;21204;-66
2022/12/15 02:49:12;;;;;;;54.30;21.50;;;;;;;-4.77;100.00;98607.09;4139949;28;20270;-64
2022/12/15 02:51:53;;;;;;;53.33;21.13;;;;;;;-4.75;100.00;98602.66;4157079;28;20310;-64
2022/12/15 02:54:38;;;;;;;62.53;22.90;;;;;;;-4.65;100.00;98615.06;4163015;28;20230;-64
2022/12/15 02:57:25;;;;;;;62.63;23.37;;;;;;;-4.61;100.00;98609.59;4177844;28;20517;-64
2022/12/15 03:00:05;;;;;;;54.97;22.10;;;;;;;-4.83;100.00;98607.47;4183484;28;20267;-67
2022/12/15 03:02:33;;;;;;;58.37;22.13;;;;;;;-4.84;100.00;98605.81;4185705;28;22371;-66
2022/12/15 03:05:00;;;;;;;53.20;22.90;;;;;;;-4.69;100.00;98620.41;4152854;28;20307;-67
2022/12/15 03:07:27;;;;;;;58.03;23.33;;;;;;;-4.59;100.00;98609.47;4175591;28;20237;-63
2022/12/15 03:10:00;;;;;;;62.23;23.63;;;;;;;-4.68;100.00;98616.91;4178154;28;20419;-64
2022/12/15 03:12:26;;;;;;;61.70;22.77;;;;;;;-4.66;100.00;98603.81;4178749;28;21385;-65
2022/12/15 03:14:53;;;;;;;58.07;22.63;;;;;;;-4.56;100.00;98601.53;4178190;28;20237;-64
2022/12/15 03:17:19;;;;;;;60.33;23.73;;;;;;;-4.50;100.00;98611.50;4176527;28;21827;-65
2022/12/15 03:19:45;;;;;;;54.17;22.37;;;;;;;-4.50;100.00;98608.91;4181330;28;21861;-67
2022/12/15 03:22:15;;;;;;;60.60;23.87;;;;;;;-4.53;100.00;98614.28;4174088;28;20270;-64
2022/12/15 03:24:41;;;;;;;62.10;22.43;;;;;;;-4.44;100.00;98618.09;4181118;28;20237;-63
2022/12/15 03:27:08;;;;;;;56.17;22.60;;;;;;;-4.51;100.00;98612.44;4175609;28;20237;-64
2022/12/15 03:29:35;;;;;;;61.63;23.23;;;;;;;-4.44;100.00;98610.31;4180837;28;20312;-66
2022/12/15 03:32:01;;;;;;;53.43;21.90;;;;;;;-4.32;100.00;98615.53;4172262;28;23741;-65
2022/12/15 03:34:28;;;;;;;56.57;22.20;;;;;;;-4.37;100.00;98620.19;4174510;28;20245;-64
2022/12/15 03:36:54;;;;;;;52.43;22.10;;;;;;;-4.30;100.00;98618.88;4174038;28;20346;-66
2022/12/15 03:39:21;;;;;;;62.97;23.27;;;;;;;-4.25;100.00;98631.59;4175586;28;21662;-65
2022/12/15 03:41:47;;;;;;;60.47;23.53;;;;;;;-4.18;100.00;98640.66;4162309;28;20300;-65
2022/12/15 03:44:14;;;;;;;51.33;21.23;;;;;;;-4.14;100.00;98641.31;4173992;28;21811;-64
2022/12/15 03:46:40;;;;;;;56.60;22.47;;;;;;;-4.14;100.00;98641.31;4173248;28;20418;-63
2022/12/15 03:49:07;;;;;;;62.47;23.10;;;;;;;-4.13;100.00;98643.78;4176205;28;20345;-65
2022/12/15 03:51:33;;;;;;;55.33;21.47;;;;;;;-4.13;100.00;98643.78;4180382;28;20237;-65
2022/12/15 03:54:00;;;;;;;58.57;22.87;;;;;;;-4.11;100.00;98641.09;4176211;28;21489;-65
2022/12/15 03:56:26;;;;;;;57.63;22.13;;;;;;;-4.09;100.00;98649.63;4174677;28;20237;-67
2022/12/15 03:58:53;;;;;;;58.03;23.93;;;;;;;-4.12;100.00;98645.47;4174927;28;20297;-63
2022/12/15 04:01:19;;;;;;;57.07;22.30;;;;;;;-4.05;100.00;98635.50;4198774;28;20236;-65
2022/12/15 04:03:46;;;;;;;56.60;23.13;;;;;;;-4.11;100.00;98651.50;4176837;28;22081;-65
2022/12/15 04:06:13;;;;;;;56.03;22.83;;;;;;;-4.11;100.00;98648.91;4178371;28;22231;-63
2022/12/15 04:08:39;;;;;;;66.93;25.47;;;;;;;-4.18;100.00;98645.84;4171884;28;21007;-66
2022/12/15 04:11:06;;;;;;;59.07;24.73;;;;;;;-4.18;100.00;98638.06;4174550;28;20318;-67
2022/12/15 04:13:32;;;;;;;55.57;23.63;;;;;;;-4.13;100.00;98653.34;4189353;28;20243;-68
2022/12/15 04:16:02;;;;;;;64.80;25.33;;;;;;;-4.21;100.00;98640.00;4178835;28;20302;-65
2022/12/15 04:18:30;;;;;;;64.33;24.90;;;;;;;-4.19;100.00;98645.94;4160056;28;20681;-65
2022/12/15 04:20:57;;;;;;;56.20;23.97;;;;;;;-4.18;100.00;98656.22;4169764;28;20233;-65
2022/12/15 04:23:24;;;;;;;61.33;25.10;;;;;;;-4.19;100.00;98654.59;4177137;28;20227;-65
2022/12/15 05:32:21;;;;;;;77.70;28.80;;;;;;;-4.39;100.00;98740.66;4178027;28;20245;-66
2022/12/15 05:34:47;;;;;;;70.03;27.07;;;;;;;-4.57;100.00;98740.00;4165162;28;20731;-64
2022/12/15 05:37:14;;;;;;;69.27;26.73;;;;;;;-4.67;100.00;98748.31;4174417;28;21253;-64
2022/12/15 05:39:41;;;;;;;76.17;28.63;;;;;;;-4.83;100.00;98750.16;4179904;28;20731;-64
2022/12/15 05:42:07;;;;;;;68.60;27.03;;;;;;;-4.74;100.00;98759.97;4176534;28;20225;-64
2022/12/15 05:44:34;;;;;;;69.03;27.90;;;;;;;-4.69;100.00;98762.31;4179227;28;21836;-63
2022/12/15 05:47:00;;;;;;;71.57;27.10;;;;;;;-4.81;100.00;98761.28;4163110;28;20688;-64
2022/12/15 05:49:27;;;;;;;83.43;30.13;;;;;;;-4.78;100.00;98768.88;4178214;28;20234;-66
2022/12/15 05:51:53;;;;;;;87.70;29.77;;;;;;;-4.79;100.00;98764.63;4180449;28;20229;-67
2022/12/15 05:54:20;;;;;;;87.17;31.77;;;;;;;-4.75;100.00;98776.50;4177325;28;20667;-64
2022/12/15 05:56:47;;;;;;;83.57;30.50;;;;;;;-4.72;100.00;98781.50;4177763;28;21806;-66
2022/12/15 05:59:16;;;;;;;73.20;29.53;;;;;;;-4.67;100.00;98779.47;4176422;28;20316;-67
2022/12/15 06:01:42;;;;;;;83.63;30.20;;;;;;;-4.72;100.00;98791.88;4167485;28;21964;-63
2022/12/15 06:04:11;;;;;;;81.27;30.57;;;;;;;-4.80;100.00;98796.69;4167302;28;20244;-67
2022/12/15 06:06:39;;;;;;;80.57;30.60;;;;;;;-4.93;100.00;98800.91;4177976;28;21265;-67
2022/12/15 06:09:05;;;;;;;86.17;31.03;;;;;;;-4.94;100.00;98799.22;4165912;28;22343;-67
2022/12/15 06:11:32;;;;;;;79.83;31.60;;;;;;;-4.97;100.00;98815.78;4169093;28;22011;-63
2022/12/15 06:13:58;;;;;;;87.50;31.93;;;;;;;-4.98;100.00;98819.31;4179431;28;20251;-64
2022/12/15 06:16:26;;;;;;;86.33;31.47;;;;;;;-5.01;100.00;98824.69;4191396;28;20229;-65
2022/12/15 06:18:57;;;;;;;80.37;30.57;;;;;;;-5.08;100.00;98833.75;4185064;28;20387;-67
2022/12/15 06:21:26;;;;;;;82.27;30.97;;;;;;;-5.16;100.00;98828.97;4175105;28;20371;-67
2022/12/15 06:23:54;;;;;;;82.53;32.10;;;;;;;-5.23;100.00;98832.81;4216119;28;22676;-68
2022/12/15 06:26:26;;;;;;;79.73;31.50;;;;;;;-5.16;100.00;98839.34;4183146;28;20345;-63
2022/12/15 06:28:55;;;;;;;88.80;31.80;;;;;;;-5.11;100.00;98844.25;4210990;28;21691;-66
2022/12/15 06:31:24;;;;;;;85.37;32.03;;;;;;;-5.08;100.00;98841.53;4213520;28;20268;-68
2022/12/15 06:33:52;;;;;;;88.40;33.40;;;;;;;-5.28;100.00;98845.22;4207105;28;20291;-65
2022/12/15 06:36:27;;;;;;;93.37;32.57;;;;;;;-5.34;100.00;98851.56;4214345;28;22030;-68
2022/12/15 06:38:57;;;;;;;83.67;32.97;;;;;;;-5.26;100.00;98864.13;4222673;28;21204;-67
2022/12/15 06:41:24;;;;;;;90.10;34.27;;;;;;;-5.30;100.00;98872.97;4240740;28;25067;-65
2022/12/15 06:43:52;;;;;;;88.13;34.77;;;;;;;-5.18;100.00;98884.41;4210646;28;21457;-66
2022/12/15 06:46:19;;;;;;;87.50;33.57;;;;;;;-5.21;100.00;98877.66;4199379;28;21159;-64
2022/12/15 06:48:45;;;;;;;91.90;34.63;;;;;;;-5.19;100.00;98886.19;4194927;28;20225;-65
2022/12/15 06:51:13;;;;;;;91.03;33.87;;;;;;;-5.25;100.00;98889.09;4182005;28;20248;-64
2022/12/15 06:54:04;;;;;;;87.53;33.20;;;;;;;-5.25;100.00;98885.69;4195716;28;21962;-67
2022/12/15 06:56:35;;;;;;;106.23;35.23;;;;;;;-5.20;100.00;98892.28;4180235;28;20238;-66
2022/12/15 06:59:04;;;;;;;88.87;32.60;;;;;;;-5.22;100.00;98891.56;4190082;28;20624;-64
2022/12/15 07:01:31;;;;;;;92.30;33.93;;;;;;;-5.19;100.00;98896.56;4179701;28;20233;-63
2022/12/15 07:04:00;;;;;;;89.87;32.67;;;;;;;-5.27;100.00;98898.72;4195022;28;20233;-66
2022/12/15 07:06:33;;;;;;;87.93;31.87;;;;;;;-5.24;100.00;98900.34;4191858;28;20416;-66
2022/12/15 07:08:59;;;;;;;90.47;34.87;;;;;;;-5.25;100.00;98904.66;4175249;28;20230;-67
2022/12/15 07:11:25;;;;;;;93.33;34.00;;;;;;;-5.31;100.00;98913.63;4161403;28;20403;-68
2022/12/15 07:13:53;;;;;;;90.87;34.53;;;;;;;-5.27;100.00;98909.09;4178842;28;20234;-63
2022/12/15 07:16:21;;;;;;;90.03;34.07;;;;;;;-5.29;100.00;98910.97;4191922;28;20272;-67
2022/12/15 07:18:47;;;;;;;96.37;35.87;;;;;;;-5.22;100.00;98914.88;4180325;28;20233;-64
2022/12/15 07:21:14;;;;;;;93.27;35.30;;;;;;;-5.33;100.00;98931.00;4175521;28;22235;-66
2022/12/15 07:23:40;;;;;;;93.30;35.40;;;;;;;-5.37;100.00;98933.84;4190907;28;20237;-68
2022/12/15 07:26:24;;;;;;;99.13;34.93;;;;;;;-5.34;100.00;98938.84;4183284;28;22570;-67
2022/12/15 07:28:52;;;;;;;98.93;36.53;;;;;;;-5.39;100.00;98943.44;4178981;28;20728;-66
2022/12/15 07:31:19;;;;;;;97.97;37.17;;;;;;;-5.46;100.00;98949.88;4177724;28;23098;-66
2022/12/15 07:33:47;;;;;;;98.23;37.67;;;;;;;-5.51;100.00;98958.72;4166197;28;20260;-65
2022/12/15 07:36:14;;;;;;;92.03;35.57;;;;;;;-5.48;100.00;98959.50;4170921;28;20244;-64
2022/12/15 07:38:40;;;;;;;93.50;36.10;;;;;;;-5.47;100.00;98963.78;4192231;28;20297;-67
2022/12/15 07:41:08;;;;;;;99.23;37.10;;;;;;;-5.49;100.00;98963.00;4191668;28;20354;-66
2022/12/15 07:43:34;;;;;;;96.90;35.53;;;;;;;-5.44;100.00;98968.78;4154101;28;20237;-65
2022/12/15 07:46:03;;;;;;;96.47;35.63;;;;;;;-5.41;100.00;98977.25;4192042;28;20234;-67
2022/12/15 07:48:31;;;;;;;101.10;37.33;;;;;;;-5.38;100.00;98979.69;4199795;28;21274;-65
2022/12/15 07:50:58;;;;;;;103.00;38.47;;;;;;;-5.28;100.00;98982.63;4197000;28;20337;-67
2022/12/15 07:53:34;;;;;;;102.73;37.83;;;;;;;-5.28;100.00;98985.22;4185459;28;20240;-63
2022/12/15 07:56:03;;;;;;;110.63;38.93;;;;;;;-5.33;100.00;98989.81;4181773;28;23017;-63
2022/12/15 07:58:35;;;;;;;109.77;40.90;;;;;;;-5.22;100.00;98997.00;4185319;28;22296;-67
2022/12/15 08:01:04;;;;;;;105.70;38.53;;;;;;;-5.18;100.00;98991.56;4172375;28;20241;-68
2022/12/15 08:03:31;;;;;;;102.53;37.27;;;;;;;-5.07;100.00;98997.97;4181347;28;21787;-67
2022/12/15 08:06:03;;;;;;;107.07;39.57;;;;;;;-5.15;100.00;99004.38;4179241;28;20230;-66
2022/12/15 08:08:33;;;;;;;97.47;36.50;;;;;;;-5.22;100.00;99005.63;4166045;28;20266;-65
2022/12/15 08:11:05;;;;;;;102.97;39.67;;;;;;;-5.16;100.00;99007.06;4178152;28;20264;-66
2022/12/15 08:13:33;;;;;;;102.67;38.10;;;;;;;-5.20;100.00;99015.91;4184269;28;20229;-64
2022/12/15 08:16:19;;;;;;;100.67;37.27;;;;;;;-5.12;100.00;99024.97;4194871;28;20233;-68
2022/12/15 08:18:47;;;;;;;102.30;37.47;;;;;;;-5.24;100.00;99019.59;4182384;28;20290;-65
2022/12/15 08:21:14;;;;;;;106.00;38.70;;;;;;;-5.06;100.00;99022.97;4182067;28;25372;-64
2022/12/15 08:23:40;;;;;;;109.77;39.30;;;;;;;-5.07;100.00;99034.25;4178041;28;20231;-69
2022/12/15 08:26:09;;;;;;;100.67;38.37;;;;;;;-4.95;100.00;99037.03;4171262;28;22433;-68
2022/12/15 08:28:37;;;;;;;100.47;38.70;;;;;;;-4.99;100.00;99038.09;4158233;28;20332;-69
2022/12/15 08:31:09;;;;;;;99.20;37.80;;;;;;;-4.95;100.00;99049.16;4198306;28;20237;-66
2022/12/15 08:33:36;;;;;;;101.80;37.80;;;;;;;-5.06;100.00;99048.91;4194036;28;25950;-67
2022/12/15 08:36:07;;;;;;;96.90;37.20;;;;;;;-4.91;100.00;99053.28;4177865;28;20237;-67
2022/12/15 08:38:34;;;;;;;95.37;36.80;;;;;;;-4.93;100.00;99057.72;4183620;28;20499;-66
2022/12/15 08:41:18;;;;;;;98.57;37.93;;;;;;;-4.89;100.00;99059.22;4178668;28;21137;-69
2022/12/15 08:43:46;;;;;;;97.97;36.73;;;;;;;-5.02;100.00;99064.22;4172592;28;20238;-66
2022/12/15 08:46:26;;;;;;;91.30;36.03;;;;;;;-5.06;100.00;99067.88;4180906;28;20411;-68
2022/12/15 08:48:53;;;;;;;97.47;37.07;;;;;;;-5.03;100.00;99074.66;4160613;28;20339;-68
2022/12/15 08:51:21;;;;;;;93.40;35.97;;;;;;;-4.92;100.00;99069.75;4190729;28;20229;-71
2022/12/15 08:53:47;;;;;;;101.50;38.77;;;;;;;-5.01;100.00;99070.22;4189925;28;21622;-65
2022/12/15 08:56:17;;;;;;;104.17;37.90;;;;;;;-4.93;100.00;99073.28;4179185;28;21835;-69
2022/12/15 08:58:45;;;;;;;109.47;41.13;;;;;;;-4.98;100.00;99070.94;4191318;28;20229;-67
2022/12/15 09:01:16;;;;;;;117.17;39.07;;;;;;;-5.07;100.00;99068.81;4185864;28;23053;-67
2022/12/15 09:03:50;;;;;;;116.03;42.23;;;;;;;-5.25;100.00;99080.13;4178505;28;20369;-67
2022/12/15 09:06:19;;;;;;;114.33;42.83;;;;;;;-5.10;100.00;99085.38;4198854;28;20235;-67
2022/12/15 09:08:46;;;;;;;121.80;43.20;;;;;;;-5.10;100.00;99087.97;4188770;28;20245;-66
2022/12/15 09:11:16;;;;;;;112.60;41.97;;;;;;;-4.95;100.00;99086.31;4186180;28;20230;-64
2022/12/15 09:13:43;;;;;;;120.43;42.57;;;;;;;-5.04;100.00;99096.34;4186624;28;20237;-64
2022/12/15 09:16:12;;;;;;;112.80;43.07;;;;;;;-5.13;100.00;99090.72;4178430;28;20237;-71
2022/12/15 09:18:58;;;;;;;128.07;45.03;;;;;;;-4.94;100.00;99097.53;4176687;28;20239;-63
2022/12/15 09:21:27;;;;;;;122.93;45.23;;;;;;;-4.92;100.00;99096.56;4167275;28;22230;-64
2022/12/15 09:23:59;;;;;;;120.87;44.37;;;;;;;-4.79;100.00;99101.91;4179603;28;20907;-65
2022/12/15 09:26:31;;;;;;;131.83;48.03;;;;;;;-4.89;100.00;99100.75;4181351;28;21718;-64
2022/12/15 09:28:59;;;;;;;128.73;44.27;;;;;;;-4.92;100.00;99100.88;4175894;28;20229;-64
2022/12/15 09:31:31;;;;;;;127.13;45.33;;;;;;;-4.88;100.00;99107.59;4188602;28;20680;-65
2022/12/15 09:33:59;;;;;;;123.37;45.60;;;;;;;-4.70;100.00;99108.38;4180340;28;20238;-66
2022/12/15 09:36:26;;;;;;;118.63;44.57;;;;;;;-4.70;100.00;99116.16;4179969;28;21260;-65
2022/12/15 09:38:52;;;;;;;124.47;44.93;;;;;;;-4.81;100.00;99116.72;4197549;28;20624;-68
2022/12/15 09:41:23;;;;;;;115.77;41.30;;;;;;;-4.76;100.00;99122.50;4183589;28;21308;-68
2022/12/15 09:43:52;;;;;;;76.63;28.80;;;;;;;-4.86;100.00;99134.28;4186208;28;20241;-67
2022/12/15 09:46:40;;;;;;;85.03;30.23;;;;;;;-5.01;100.00;99132.47;4195157;28;20233;-66
2022/12/15 09:49:17;;;;;;;87.50;29.33;;;;;;;-5.07;100.00;99130.22;4186692;28;26884;-64
2022/12/15 09:51:49;;;;;;;83.63;29.67;;;;;;;-5.16;100.00;99127.16;4179744;28;20275;-63
2022/12/15 09:54:15;;;;;;;82.20;29.50;;;;;;;-5.05;100.00;99123.22;4183202;28;20928;-64
2022/12/15 09:56:54;;;;;;;90.20;30.03;;;;;;;-5.10;100.00;99126.88;4215265;28;20327;-67
2022/12/15 09:59:45;;;;;;;82.80;29.00;;;;;;;-5.01;100.00;99129.88;4189595;28;20232;-65
2022/12/15 10:02:23;;;;;;;81.03;27.80;;;;;;;-4.96;100.00;99125.31;4197913;28;20400;-66
2022/12/15 10:05:27;;;;;;;77.13;26.67;;;;;;;-4.87;100.00;99122.22;4189191;28;20238;-63
2022/12/15 10:08:14;;;;;;;78.00;27.90;;;;;;;-4.93;100.00;99138.13;4183794;28;20269;-67
2022/12/15 10:10:56;;;;;;;84.73;30.43;;;;;;;-4.83;100.00;99147.09;4173848;28;20411;-64
2022/12/15 10:13:52;;;;;;;84.30;29.90;;;;;;;-4.91;100.00;99146.69;4185869;28;20234;-64
2022/12/15 10:16:26;;;;;;;86.20;29.67;;;;;;;-4.79;100.00;99146.03;4179803;28;20234;-64
2022/12/15 10:19:02;;;;;;;83.67;28.60;;;;;;;-4.65;100.00;99147.91;4196269;28;20305;-70
2022/12/15 10:21:30;;;;;;;83.93;30.37;;;;;;;-4.59;100.00;99149.31;4193160;28;23615;-69
2022/12/15 10:24:11;;;;;;;86.83;30.27;;;;;;;-4.68;100.00;99154.09;4174560;28;20245;-69
2022/12/15 10:26:38;;;;;;;89.93;32.10;;;;;;;-4.63;100.00;99160.81;4180063;28;20234;-68
2022/12/15 10:29:22;;;;;;;97.20;33.57;;;;;;;-4.69;100.00;99165.38;4187307;28;20980;-68
2022/12/15 10:31:53;;;;;;;86.43;31.60;;;;;;;-4.63;100.00;99166.84;4185988;28;21209;-65
2022/12/15 10:34:28;;;;;;;94.70;33.37;;;;;;;-4.70;100.00;99163.72;4198669;28;20243;-68
2022/12/15 10:36:56;;;;;;;85.67;30.63;;;;;;;-4.86;100.00;99168.03;4185127;28;21220;-64
2022/12/15 10:39:28;;;;;;;82.67;30.17;;;;;;;-4.91;100.00;99170.03;4184792;28;20383;-68
2022/12/15 10:42:38;;;;;;;90.93;32.23;;;;;;;-4.90;100.00;99176.88;4166627;28;20510;-69
2022/12/15 10:45:28;;;;;;;83.60;29.43;;;;;;;-4.93;100.00;99177.03;4135053;29;20567;-66
2022/12/15 10:47:58;;;;;;;89.63;29.63;;;;;;;-4.93;100.00;99179.63;4137641;29;22056;-68
2022/12/15 10:50:26;;;;;;;89.87;30.07;;;;;;;-4.84;100.00;99186.13;4164658;28;20263;-68
2022/12/15 10:52:53;;;;;;;88.90;32.83;;;;;;;-5.11;100.00;99187.41;4178573;28;20758;-67
2022/12/15 10:55:42;;;;;;;90.53;32.83;;;;;;;-5.07;100.00;99192.47;4179299;28;20340;-70
2022/12/15 10:58:20;;;;;;;97.33;35.30;;;;;;;-5.01;100.00;99189.56;4193945;28;20740;-69
2022/12/15 11:00:48;;;;;;;96.20;33.70;;;;;;;-5.14;100.00;99190.19;4165916;28;20289;-69
2022/12/15 11:03:24;;;;;;;96.83;34.67;;;;;;;-5.00;100.00;99193.84;4169431;28;20222;-68
2022/12/15 11:05:53;;;;;;;101.10;36.40;;;;;;;-5.05;100.00;99199.25;4184984;28;22100;-67
2022/12/15 11:08:21;;;;;;;95.03;33.03;;;;;;;-5.21;100.00;99195.75;4173966;28;20233;-67
2022/12/15 11:14:09;;;;;;;96.53;32.63;;;;;;;-5.12;100.00;99211.69;4150910;28;20732;-69
2022/12/15 11:16:42;;;;;;;95.17;33.00;;;;;;;-5.07;100.00;99203.69;4180767;28;20303;-71
2022/12/15 11:19:15;;;;;;;92.57;32.63;;;;;;;-5.06;100.00;99215.72;4180234;28;20234;-68
2022/12/15 11:21:47;;;;;;;87.00;30.73;;;;;;;-5.22;100.00;99202.69;4174013;28;20450;-68
2022/12/15 11:24:20;;;;;;;88.43;33.07;;;;;;;-5.28;100.00;99221.13;4182958;28;20233;-70
2022/12/15 11:26:55;;;;;;;86.17;29.80;;;;;;;-5.28;100.00;99217.72;4183992;28;20259;-67
2022/12/15 11:29:58;;;;;;;80.10;28.47;;;;;;;-5.31;100.00;99218.72;4179136;28;25446;-73
2022/12/15 11:32:28;;;;;;;85.10;28.03;;;;;;;-5.31;100.00;99229.91;4186444;28;20272;-70
2022/12/15 11:34:55;;;;;;;78.07;27.63;;;;;;;-5.28;100.00;99228.09;4189128;28;20938;-70
2022/12/15 11:37:35;;;;;;;87.30;27.10;;;;;;;-5.31;100.00;99236.84;4183493;28;20242;-67
2022/12/15 11:40:24;;;;;;;86.07;29.23;;;;;;;-5.40;100.00;99235.53;4203264;28;21494;-68
2022/12/15 11:42:50;;;;;;;90.07;29.17;;;;;;;-5.43;100.00;99243.47;4202082;28;20233;-68
2022/12/15 11:45:24;;;;;;;86.90;29.07;;;;;;;-5.46;100.00;99250.53;4200742;28;22009;-69
2022/12/15 11:48:20;;;;;;;93.83;29.60;;;;;;;-5.33;100.00;99249.06;4200599;28;21596;-64
2022/12/15 11:51:05;;;;;;;101.17;32.00;;;;;;;-5.39;100.00;99252.75;4167871;28;21618;-68
2022/12/15 11:53:53;;;;;;;107.30;34.93;;;;;;;-5.27;100.00;99256.50;4170926;28;20245;-66
2022/12/15 11:56:29;;;;;;;126.63;36.13;;;;;;;-5.13;100.00;99259.31;4196331;28;20458;-67
2022/12/15 11:59:14;;;;;;;110.17;34.50;;;;;;;-5.18;100.00;99265.59;4190431;28;21345;-66
2022/12/15 12:01:47;;;;;;;104.60;34.70;;;;;;;-5.25;100.00;99264.22;4182159;28;20252;-70
2022/12/15 12:04:54;;;;;;;107.47;35.47;;;;;;;-5.24;100.00;99266.75;4178346;28;20494;-67
2022/12/15 12:07:35;;;;;;;115.13;37.57;;;;;;;-5.21;100.00;99273.53;4180341;28;23252;-65
2022/12/15 12:10:21;;;;;;;116.70;37.53;;;;;;;-5.22;100.00;99275.31;4170510;28;20264;-67
2022/12/15 12:12:52;;;;;;;125.30;38.57;;;;;;;-5.28;100.00;99275.59;4193992;28;20806;-65
2022/12/15 12:15:27;;;;;;;126.90;39.37;;;;;;;-5.38;100.00;99279.53;4158607;28;20233;-65
2022/12/15 12:18:26;;;;;;;122.23;38.23;;;;;;;-5.40;100.00;99287.38;4190467;28;20271;-64
2022/12/15 12:21:00;;;;;;;135.97;42.27;;;;;;;-5.37;100.00;99291.59;4183556;28;20895;-65
2022/12/15 12:23:42;;;;;;;133.57;39.73;;;;;;;-5.28;100.00;99298.91;4172447;28;23130;-66
2022/12/15 12:26:14;;;;;;;114.53;38.73;;;;;;;-5.03;100.00;99295.13;4171488;28;20357;-66
2022/12/15 12:28:46;;;;;;;135.73;41.83;;;;;;;-5.07;100.00;99291.03;4175845;28;20409;-64
2022/12/15 12:31:33;;;;;;;129.70;42.40;;;;;;;-5.15;100.00;99301.75;4168344;28;21673;-65
2022/12/15 12:34:03;;;;;;;138.73;41.10;;;;;;;-5.08;100.00;99297.97;4181598;28;20283;-65
2022/12/15 12:36:29;;;;;;;135.70;41.83;;;;;;;-5.17;100.00;99309.63;4175704;28;22135;-65
2022/12/15 12:38:56;;;;;;;137.97;42.97;;;;;;;-5.23;100.00;99309.91;4173355;28;21879;-66
2022/12/15 12:41:32;;;;;;;125.13;39.57;;;;;;;-5.13;100.00;99318.94;4140675;28;20244;-64
2022/12/15 12:44:03;;;;;;;123.03;40.77;;;;;;;-5.06;100.00;99321.22;4176356;28;23168;-65
2022/12/15 12:46:33;;;;;;;143.57;42.80;;;;;;;-5.18;100.00;99322.66;4187033;28;20453;-67
2022/12/15 12:49:05;;;;;;;130.63;43.30;;;;;;;-5.19;100.00;99324.41;4162214;28;21432;-67
2022/12/15 12:51:37;;;;;;;134.43;40.43;;;;;;;-5.26;100.00;99320.44;4196172;28;22358;-61
2022/12/15 12:54:34;;;;;;;116.97;39.27;;;;;;;-5.09;100.00;99322.22;4165229;28;20238;-65
2022/12/15 12:57:28;;;;;;;137.40;42.77;;;;;;;-5.23;100.00;99325.47;4184313;28;20340;-66
2022/12/15 13:00:00;;;;;;;112.10;36.83;;;;;;;-5.15;100.00;99332.88;4178397;28;20383;-67
2022/12/15 13:02:26;;;;;;;128.00;39.30;;;;;;;-5.22;100.00;99336.69;4188193;28;20308;-68
2022/12/15 13:05:00;;;;;;;121.33;38.97;;;;;;;-5.24;100.00;99343.72;4182287;28;20232;-66
2022/12/15 13:07:39;;;;;;;129.10;39.33;;;;;;;-5.16;100.00;99337.22;4174111;28;21355;-65
2022/12/15 13:10:20;;;;;;;109.77;36.27;;;;;;;-5.17;100.00;99340.75;4188512;28;21655;-66
2022/12/15 13:12:54;;;;;;;121.33;36.13;;;;;;;-5.18;100.00;99349.41;4183433;28;20414;-67
2022/12/15 13:15:38;;;;;;;114.73;37.33;;;;;;;-5.07;100.00;99356.72;4200058;28;20291;-66
2022/12/15 13:18:23;;;;;;;119.97;37.73;;;;;;;-5.15;100.00;99348.44;4174807;28;21495;-67
2022/12/15 13:20:54;;;;;;;120.13;36.83;;;;;;;-5.12;100.00;99349.16;4196242;28;20352;-65
2022/12/15 13:23:21;;;;;;;113.57;38.87;;;;;;;-5.03;100.00;99347.88;4187331;28;20367;-65
2022/12/15 13:25:56;;;;;;;107.00;33.50;;;;;;;-5.01;100.00;99360.75;4178603;28;20449;-65
2022/12/15 13:28:37;;;;;;;103.80;33.60;;;;;;;-5.05;100.00;99360.06;4173814;28;20229;-64
2022/12/15 13:31:16;;;;;;;89.73;32.10;;;;;;;-5.18;100.00;99359.78;4186384;28;20233;-68
2022/12/15 13:34:09;;;;;;;104.47;34.27;;;;;;;-5.15;100.00;99364.84;4179976;28;21740;-64
2022/12/15 13:36:35;;;;;;;108.03;35.57;;;;;;;-5.06;100.00;99373.09;4197098;28;21573;-65
2022/12/15 13:39:13;;;;;;;104.10;33.00;;;;;;;-5.02;100.00;99367.69;4213299;28;20232;-66
2022/12/15 13:41:47;;;;;;;103.37;32.07;;;;;;;-5.05;100.00;99382.59;4218152;28;21648;-66
2022/12/15 13:44:40;;;;;;;107.27;31.33;;;;;;;-5.24;100.00;99386.03;4214284;28;20233;-65
2022/12/15 13:47:13;;;;;;;114.10;33.83;;;;;;;-5.14;100.00;99387.28;4198657;28;22209;-64
2022/12/15 13:49:46;;;;;;;113.73;34.80;;;;;;;-5.17;100.00;99397.81;4203170;28;21812;-66
2022/12/15 13:52:26;;;;;;;106.23;33.23;;;;;;;-5.22;100.00;99393.72;4214929;28;20242;-65
2022/12/15 13:55:36;;;;;;;120.43;35.30;;;;;;;-5.33;100.00;99397.66;4205431;28;22112;-66